sensor_id;sensor_type;location;lat;lon;timestamp;pressure;altitude;pressure_sealevel;temperature;humidity
64200;BME280;50516;52.272;5.136;2022-12-29T00:01:16;99867.88;;;10.29;100.00
64200;BME280;50516;52.272;5.136;2022-12-29T00:03:42;99855.41;;;10.42;100.00
64200;BME280;50516;52.272;5.136;2022-12-29T00:06:07;99852.19;;;10.35;100.00
64200;BME280;50516;52.272;5.136;2022-12-29T00:08:33;99844.63;;;10.46;100.00
64200;BME280;50516;52.272;5.136;2022-12-29T00:11:18;99828.75;;;10.43;100.00
64200;BME280;50516;52.272;5.136;2022-12-29T00:13:43;99825.44;;;10.46;100.00
64200;BME280;50516;52.272;5.136;2022-12-29T00:16:28;99814.97;;;10.48;100.00
64200;BME280;50516;52.272;5.136;2022-12-29T00:18:53;99824.63;;;10.45;100.00
64200;BME280;50516;52.272;5.136;2022-12-29T00:21:21;99822.91;;;10.49;100.00
64200;BME280;50516;52.272;5.136;2022-12-29T00:24:06;99802.38;;;10.47;100.00
64200;BME280;50516;52.272;5.136;2022-12-29T00:26:50;99809.84;;;10.41;100.00
64200;BME280;50516;52.272;5.136;2022-12-29T00:29:36;99794.72;;;10.44;100.00
64200;BME280;50516;52.272;5.136;2022-12-29T00:32:20;99805.03;;;10.52;100.00
64200;BME280;50516;52.272;5.136;2022-12-29T00:35:04;99789.47;;;10.47;100.00
64200;BME280;50516;52.272;5.136;2022-12-29T00:37:37;99783.69;;;10.49;100.00
64200;BME280;50516;52.272;5.136;2022-12-29T00:40:23;99772.09;;;10.52;100.00
64200;BME280;50516;52.272;5.136;2022-12-29T00:43:07;99767.41;;;10.52;100.00
64200;BME280;50516;52.272;5.136;2022-12-29T00:45:51;99771.66;;;10.45;100.00
64200;BME280;50516;52.272;5.136;2022-12-29T00:48:16;99756.03;;;10.45;100.00
64200;BME280;50516;52.272;5.136;2022-12-29T00:51:05;99758.69;;;10.50;100.00
64200;BME280;50516;52.272;5.136;2022-12-29T00:53:31;99748.00;;;10.49;100.00
64200;BME280;50516;52.272;5.136;2022-12-29T00:55:57;99755.72;;;10.47;100.00
64200;BME280;50516;52.272;5.136;2022-12-29T00:58:22;99750.66;;;10.54;100.00
64200;BME280;50516;52.272;5.136;2022-12-29T01:00:47;99731.44;;;10.54;100.00
64200;BME280;50516;52.272;5.136;2022-12-29T01:03:13;99734.03;;;10.64;99.84
64200;BME280;50516;52.272;5.136;2022-12-29T01:05:38;99744.06;;;10.55;100.00
64200;BME280;50516;52.272;5.136;2022-12-29T01:08:04;99743.84;;;10.51;99.88
64200;BME280;50516;52.272;5.136;2022-12-29T01:10:29;99736.44;;;10.52;99.99
64200;BME280;50516;52.272;5.136;2022-12-29T01:12:54;99729.09;;;10.47;100.00
64200;BME280;50516;52.272;5.136;2022-12-29T01:15:20;99714.97;;;10.54;100.00
64200;BME280;50516;52.272;5.136;2022-12-29T01:17:45;99722.91;;;10.55;100.00
64200;BME280;50516;52.272;5.136;2022-12-29T01:20:12;99725.53;;;10.47;100.00
64200;BME280;50516;52.272;5.136;2022-12-29T01:22:38;99722.63;;;10.38;100.00
64200;BME280;50516;52.272;5.136;2022-12-29T01:25:04;99722.53;;;10.43;100.00
64200;BME280;50516;52.272;5.136;2022-12-29T01:27:30;99718.28;;;10.37;100.00
64200;BME280;50516;52.272;5.136;2022-12-29T01:29:55;99715.06;;;10.30;100.00
64200;BME280;50516;52.272;5.136;2022-12-29T01:32:21;99733.91;;;10.36;100.00
64200;BME280;50516;52.272;5.136;2022-12-29T01:34:47;99724.88;;;10.36;100.00
64200;BME280;50516;52.272;5.136;2022-12-29T01:37:12;99726.28;;;10.33;100.00
64200;BME280;50516;52.272;5.136;2022-12-29T01:39:38;99727.44;;;10.27;100.00
64200;BME280;50516;52.272;5.136;2022-12-29T01:42:03;99734.56;;;10.28;100.00
64200;BME280;50516;52.272;5.136;2022-12-29T01:49:57;99734.13;;;10.21;100.00
64200;BME280;50516;52.272;5.136;2022-12-29T01:52:26;99738.19;;;10.23;100.00
64200;BME280;50516;52.272;5.136;2022-12-29T01:54:55;99738.78;;;10.20;100.00
64200;BME280;50516;52.272;5.136;2022-12-29T01:57:29;99728.63;;;10.21;100.00
64200;BME280;50516;52.272;5.136;2022-12-29T02:00:00;99740.63;;;10.25;100.00
64200;BME280;50516;52.272;5.136;2022-12-29T02:02:26;99747.25;;;10.24;100.00
64200;BME280;50516;52.272;5.136;2022-12-29T02:04:53;99740.03;;;10.28;100.00
64200;BME280;50516;52.272;5.136;2022-12-29T02:07:23;99735.16;;;10.25;100.00
64200;BME280;50516;52.272;5.136;2022-12-29T02:09:50;99735.72;;;10.22;100.00
64200;BME280;50516;52.272;5.136;2022-12-29T02:12:19;99736.31;;;10.19;100.00
64200;BME280;50516;52.272;5.136;2022-12-29T02:14:47;99739.91;;;10.19;100.00
64200;BME280;50516;52.272;5.136;2022-12-29T02:17:31;99742.06;;;10.22;100.00
64200;BME280;50516;52.272;5.136;2022-12-29T02:25:45;99761.56;;;10.21;100.00
64200;BME280;50516;52.272;5.136;2022-12-29T02:33:32;99742.34;;;10.21;100.00
64200;BME280;50516;52.272;5.136;2022-12-29T02:46:37;99726.41;;;10.23;100.00
64200;BME280;50516;52.272;5.136;2022-12-29T02:49:48;99737.81;;;10.30;100.00
64200;BME280;50516;52.272;5.136;2022-12-29T02:52:17;99741.16;;;10.27;100.00
64200;BME280;50516;52.272;5.136;2022-12-29T02:54:44;99730.25;;;10.22;100.00
64200;BME280;50516;52.272;5.136;2022-12-29T02:57:12;99740.13;;;10.23;100.00
64200;BME280;50516;52.272;5.136;2022-12-29T02:59:38;99741.38;;;10.31;100.00
64200;BME280;50516;52.272;5.136;2022-12-29T03:02:49;99744.13;;;10.31;100.00
64200;BME280;50516;52.272;5.136;2022-12-29T03:13:04;99735.81;;;10.17;100.00
64200;BME280;50516;52.272;5.136;2022-12-29T03:16:21;99737.47;;;10.18;100.00
64200;BME280;50516;52.272;5.136;2022-12-29T03:22:07;99733.00;;;10.22;100.00
64200;BME280;50516;52.272;5.136;2022-12-29T03:24:56;99726.94;;;10.06;100.00
64200;BME280;50516;52.272;5.136;2022-12-29T03:27:38;99727.00;;;10.01;100.00
64200;BME280;50516;52.272;5.136;2022-12-29T03:30:05;99719.13;;;9.94;100.00
64200;BME280;50516;52.272;5.136;2022-12-29T03:32:36;99722.47;;;9.91;100.00
64200;BME280;50516;52.272;5.136;2022-12-29T03:35:05;99723.59;;;9.90;100.00
64200;BME280;50516;52.272;5.136;2022-12-29T03:37:38;99739.22;;;9.90;100.00
64200;BME280;50516;52.272;5.136;2022-12-29T03:40:05;99731.28;;;9.88;100.00
64200;BME280;50516;52.272;5.136;2022-12-29T03:42:33;99741.28;;;9.98;100.00
64200;BME280;50516;52.272;5.136;2022-12-29T03:45:00;99722.75;;;9.90;99.91
64200;BME280;50516;52.272;5.136;2022-12-29T03:47:25;99722.38;;;9.96;99.85
64200;BME280;50516;52.272;5.136;2022-12-29T03:49:51;99732.78;;;9.99;99.39
64200;BME280;50516;52.272;5.136;2022-12-29T03:52:17;99717.28;;;9.90;99.36
64200;BME280;50516;52.272;5.136;2022-12-29T03:54:43;99718.47;;;9.83;98.42
64200;BME280;50516;52.272;5.136;2022-12-29T03:57:10;99712.09;;;9.88;98.51
64200;BME280;50516;52.272;5.136;2022-12-29T03:59:36;99705.78;;;9.87;98.19
64200;BME280;50516;52.272;5.136;2022-12-29T04:02:01;99719.78;;;9.86;97.82
64200;BME280;50516;52.272;5.136;2022-12-29T04:04:26;99726.38;;;9.85;97.68
64200;BME280;50516;52.272;5.136;2022-12-29T04:06:52;99725.78;;;9.88;97.52
64200;BME280;50516;52.272;5.136;2022-12-29T04:09:17;99742.50;;;9.92;97.55
64200;BME280;50516;52.272;5.136;2022-12-29T04:11:43;99750.19;;;9.90;97.20
64200;BME280;50516;52.272;5.136;2022-12-29T04:14:08;99755.63;;;9.95;97.47
64200;BME280;50516;52.272;5.136;2022-12-29T04:16:34;99757.31;;;9.91;96.98
64200;BME280;50516;52.272;5.136;2022-12-29T04:19:01;99755.16;;;9.87;97.45
64200;BME280;50516;52.272;5.136;2022-12-29T04:21:27;99754.84;;;9.89;97.54
64200;BME280;50516;52.272;5.136;2022-12-29T04:23:52;99743.31;;;9.92;97.05
64200;BME280;50516;52.272;5.136;2022-12-29T04:26:17;99737.59;;;9.89;97.60
64200;BME280;50516;52.272;5.136;2022-12-29T04:28:43;99741.81;;;9.81;97.35
64200;BME280;50516;52.272;5.136;2022-12-29T04:31:08;99756.09;;;9.78;97.76
64200;BME280;50516;52.272;5.136;2022-12-29T04:33:34;99761.06;;;9.76;97.24
64200;BME280;50516;52.272;5.136;2022-12-29T04:35:59;99763.25;;;9.74;96.74
64200;BME280;50516;52.272;5.136;2022-12-29T04:38:25;99760.22;;;9.75;97.41
64200;BME280;50516;52.272;5.136;2022-12-29T04:40:50;99765.72;;;9.75;97.31
64200;BME280;50516;52.272;5.136;2022-12-29T04:43:16;99761.06;;;9.76;96.65
64200;BME280;50516;52.272;5.136;2022-12-29T04:45:45;99760.00;;;9.72;95.22
64200;BME280;50516;52.272;5.136;2022-12-29T04:48:12;99762.38;;;9.59;95.62
64200;BME280;50516;52.272;5.136;2022-12-29T04:50:37;99766.19;;;9.58;95.13
64200;BME280;50516;52.272;5.136;2022-12-29T04:53:03;99765.84;;;9.65;94.61
64200;BME280;50516;52.272;5.136;2022-12-29T04:55:29;99760.72;;;9.58;94.11
64200;BME280;50516;52.272;5.136;2022-12-29T04:57:54;99776.28;;;9.63;93.71
64200;BME280;50516;52.272;5.136;2022-12-29T05:00:19;99772.63;;;9.73;93.29
64200;BME280;50516;52.272;5.136;2022-12-29T05:02:45;99760.00;;;9.72;93.41
64200;BME280;50516;52.272;5.136;2022-12-29T05:05:11;99764.91;;;9.75;94.36
64200;BME280;50516;52.272;5.136;2022-12-29T05:07:36;99767.72;;;9.69;94.86
64200;BME280;50516;52.272;5.136;2022-12-29T05:10:02;99770.28;;;9.61;94.98
64200;BME280;50516;52.272;5.136;2022-12-29T05:12:32;99780.56;;;9.50;96.33
64200;BME280;50516;52.272;5.136;2022-12-29T05:14:58;99780.41;;;9.60;96.30
64200;BME280;50516;52.272;5.136;2022-12-29T05:17:23;99789.47;;;9.61;96.19
64200;BME280;50516;52.272;5.136;2022-12-29T05:19:49;99787.03;;;9.59;96.58
64200;BME280;50516;52.272;5.136;2022-12-29T05:22:14;99777.75;;;9.55;95.94
64200;BME280;50516;52.272;5.136;2022-12-29T05:24:40;99779.41;;;9.51;96.26
64200;BME280;50516;52.272;5.136;2022-12-29T05:27:05;99776.69;;;9.51;96.92
64200;BME280;50516;52.272;5.136;2022-12-29T05:29:30;99776.16;;;9.49;96.64
64200;BME280;50516;52.272;5.136;2022-12-29T05:31:56;99781.41;;;9.45;96.60
64200;BME280;50516;52.272;5.136;2022-12-29T05:34:21;99781.47;;;9.40;96.85
64200;BME280;50516;52.272;5.136;2022-12-29T05:36:46;99786.66;;;9.42;97.29
64200;BME280;50516;52.272;5.136;2022-12-29T05:39:12;99796.50;;;9.43;97.37
64200;BME280;50516;52.272;5.136;2022-12-29T05:41:37;99792.72;;;9.39;96.99
64200;BME280;50516;52.272;5.136;2022-12-29T05:44:02;99807.81;;;9.36;97.59
64200;BME280;50516;52.272;5.136;2022-12-29T05:46:28;99790.34;;;9.32;97.38
64200;BME280;50516;52.272;5.136;2022-12-29T05:48:53;99791.13;;;9.32;97.45
64200;BME280;50516;52.272;5.136;2022-12-29T05:51:19;99786.53;;;9.28;97.46
64200;BME280;50516;52.272;5.136;2022-12-29T05:53:44;99799.41;;;9.27;97.93
64200;BME280;50516;52.272;5.136;2022-12-29T05:56:09;99795.59;;;9.23;97.74
64200;BME280;50516;52.272;5.136;2022-12-29T05:58:34;99802.09;;;9.32;97.74
64200;BME280;50516;52.272;5.136;2022-12-29T06:01:00;99801.47;;;9.41;97.43
64200;BME280;50516;52.272;5.136;2022-12-29T06:03:25;99811.41;;;9.31;97.58
64200;BME280;50516;52.272;5.136;2022-12-29T06:05:51;99809.78;;;9.30;97.49
64200;BME280;50516;52.272;5.136;2022-12-29T06:08:17;99810.19;;;9.43;97.54
64200;BME280;50516;52.272;5.136;2022-12-29T06:10:42;99813.28;;;9.36;97.10
64200;BME280;50516;52.272;5.136;2022-12-29T06:13:07;99808.59;;;9.42;96.80
64200;BME280;50516;52.272;5.136;2022-12-29T06:15:33;99803.75;;;9.58;96.74
64200;BME280;50516;52.272;5.136;2022-12-29T06:17:58;99808.81;;;9.45;96.55
64200;BME280;50516;52.272;5.136;2022-12-29T06:20:24;99816.81;;;9.42;96.39
64200;BME280;50516;52.272;5.136;2022-12-29T06:22:49;99803.97;;;9.37;96.63
64200;BME280;50516;52.272;5.136;2022-12-29T06:25:15;99813.88;;;9.33;96.80
64200;BME280;50516;52.272;5.136;2022-12-29T06:27:41;99813.13;;;9.27;96.97
64200;BME280;50516;52.272;5.136;2022-12-29T06:30:07;99813.63;;;9.29;96.58
64200;BME280;50516;52.272;5.136;2022-12-29T06:32:32;99833.09;;;9.28;96.51
64200;BME280;50516;52.272;5.136;2022-12-29T06:34:57;99831.72;;;9.30;96.15
64200;BME280;50516;52.272;5.136;2022-12-29T06:37:23;99830.75;;;9.16;96.38
64200;BME280;50516;52.272;5.136;2022-12-29T06:39:48;99834.53;;;9.20;96.31
64200;BME280;50516;52.272;5.136;2022-12-29T06:42:13;99829.91;;;9.16;96.29
64200;BME280;50516;52.272;5.136;2022-12-29T06:44:39;99843.91;;;9.14;96.07
64200;BME280;50516;52.272;5.136;2022-12-29T06:47:05;99834.53;;;9.20;96.00
64200;BME280;50516;52.272;5.136;2022-12-29T06:49:30;99839.44;;;9.23;95.74
64200;BME280;50516;52.272;5.136;2022-12-29T06:51:55;99843.47;;;9.31;95.73
64200;BME280;50516;52.272;5.136;2022-12-29T06:54:23;99834.44;;;9.30;94.91
64200;BME280;50516;52.272;5.136;2022-12-29T06:56:48;99848.47;;;9.24;94.71
64200;BME280;50516;52.272;5.136;2022-12-29T06:59:13;99845.47;;;9.20;94.58
64200;BME280;50516;52.272;5.136;2022-12-29T07:01:39;99842.28;;;9.13;94.46
64200;BME280;50516;52.272;5.136;2022-12-29T07:04:04;99849.34;;;9.19;94.07
64200;BME280;50516;52.272;5.136;2022-12-29T07:06:29;99851.50;;;9.22;93.76
64200;BME280;50516;52.272;5.136;2022-12-29T07:08:55;99857.47;;;9.29;93.38
64200;BME280;50516;52.272;5.136;2022-12-29T07:11:22;99847.84;;;9.32;93.13
64200;BME280;50516;52.272;5.136;2022-12-29T07:13:48;99847.00;;;9.37;93.07
64200;BME280;50516;52.272;5.136;2022-12-29T07:16:13;99844.56;;;9.30;92.58
64200;BME280;50516;52.272;5.136;2022-12-29T07:18:38;99848.19;;;9.25;92.54
64200;BME280;50516;52.272;5.136;2022-12-29T07:21:04;99842.50;;;9.17;92.63
64200;BME280;50516;52.272;5.136;2022-12-29T07:23:30;99847.94;;;9.22;92.08
64200;BME280;50516;52.272;5.136;2022-12-29T07:26:00;99835.59;;;9.24;92.10
64200;BME280;50516;52.272;5.136;2022-12-29T07:28:26;99855.88;;;9.23;91.60
64200;BME280;50516;52.272;5.136;2022-12-29T07:30:51;99855.81;;;9.28;91.30
64200;BME280;50516;52.272;5.136;2022-12-29T07:33:16;99852.56;;;9.26;90.49
64200;BME280;50516;52.272;5.136;2022-12-29T07:35:42;99854.19;;;9.27;90.55
64200;BME280;50516;52.272;5.136;2022-12-29T07:38:07;99865.09;;;9.32;90.78
64200;BME280;50516;52.272;5.136;2022-12-29T07:40:33;99857.97;;;9.31;90.70
64200;BME280;50516;52.272;5.136;2022-12-29T07:42:58;99861.78;;;9.36;90.44
64200;BME280;50516;52.272;5.136;2022-12-29T07:45:23;99869.72;;;9.37;90.26
64200;BME280;50516;52.272;5.136;2022-12-29T07:47:49;99852.22;;;9.33;90.74
64200;BME280;50516;52.272;5.136;2022-12-29T07:50:15;99860.25;;;9.24;91.19
64200;BME280;50516;52.272;5.136;2022-12-29T07:52:40;99863.56;;;9.21;91.67
64200;BME280;50516;52.272;5.136;2022-12-29T07:55:06;99867.44;;;9.15;91.69
64200;BME280;50516;52.272;5.136;2022-12-29T07:57:31;99860.81;;;9.21;92.08
64200;BME280;50516;52.272;5.136;2022-12-29T07:59:57;99859.22;;;9.15;92.16
64200;BME280;50516;52.272;5.136;2022-12-29T08:02:22;99858.03;;;9.26;92.08
64200;BME280;50516;52.272;5.136;2022-12-29T08:04:47;99853.47;;;9.17;92.29
64200;BME280;50516;52.272;5.136;2022-12-29T08:07:13;99840.88;;;9.16;92.26
64200;BME280;50516;52.272;5.136;2022-12-29T08:09:38;99844.63;;;9.25;92.19
64200;BME280;50516;52.272;5.136;2022-12-29T08:12:03;99850.94;;;9.25;92.04
64200;BME280;50516;52.272;5.136;2022-12-29T08:14:29;99848.94;;;9.31;91.79
64200;BME280;50516;52.272;5.136;2022-12-29T08:16:54;99857.22;;;9.26;92.10
64200;BME280;50516;52.272;5.136;2022-12-29T08:19:19;99855.00;;;9.28;92.39
64200;BME280;50516;52.272;5.136;2022-12-29T08:21:45;99851.50;;;9.22;93.42
64200;BME280;50516;52.272;5.136;2022-12-29T08:24:10;99848.78;;;9.22;94.17
64200;BME280;50516;52.272;5.136;2022-12-29T08:26:35;99847.03;;;9.31;94.47
64200;BME280;50516;52.272;5.136;2022-12-29T08:29:01;99844.00;;;9.33;94.27
64200;BME280;50516;52.272;5.136;2022-12-29T08:31:26;99855.81;;;9.28;93.73
64200;BME280;50516;52.272;5.136;2022-12-29T08:33:51;99851.75;;;9.26;93.98
64200;BME280;50516;52.272;5.136;2022-12-29T08:36:17;99848.03;;;9.41;93.66
64200;BME280;50516;52.272;5.136;2022-12-29T08:38:42;99861.28;;;9.34;92.65
64200;BME280;50516;52.272;5.136;2022-12-29T08:41:08;99850.59;;;9.32;92.49
64200;BME280;50516;52.272;5.136;2022-12-29T08:43:33;99841.81;;;9.30;92.26
64200;BME280;50516;52.272;5.136;2022-12-29T08:45:59;99845.94;;;9.32;91.37
64200;BME280;50516;52.272;5.136;2022-12-29T08:48:25;99853.38;;;9.27;91.82
64200;BME280;50516;52.272;5.136;2022-12-29T08:50:50;99868.47;;;9.24;91.73
64200;BME280;50516;52.272;5.136;2022-12-29T08:53:16;99870.63;;;9.27;91.64
64200;BME280;50516;52.272;5.136;2022-12-29T08:55:45;99876.97;;;9.23;92.48
64200;BME280;50516;52.272;5.136;2022-12-29T08:58:11;99871.09;;;9.35;92.78
64200;BME280;50516;52.272;5.136;2022-12-29T09:00:40;99868.94;;;9.31;93.49
64200;BME280;50516;52.272;5.136;2022-12-29T09:03:05;99869.00;;;9.26;93.53
64200;BME280;50516;52.272;5.136;2022-12-29T09:05:30;99885.47;;;9.21;93.66
64200;BME280;50516;52.272;5.136;2022-12-29T09:07:56;99899.41;;;9.25;93.87
64200;BME280;50516;52.272;5.136;2022-12-29T09:10:21;99908.47;;;9.25;94.39
64200;BME280;50516;52.272;5.136;2022-12-29T09:12:46;99912.81;;;9.26;94.48
64200;BME280;50516;52.272;5.136;2022-12-29T09:15:11;99911.22;;;9.20;94.75
64200;BME280;50516;52.272;5.136;2022-12-29T09:17:37;99919.75;;;9.13;95.67
64200;BME280;50516;52.272;5.136;2022-12-29T09:20:06;99937.31;;;9.12;96.62
64200;BME280;50516;52.272;5.136;2022-12-29T09:22:33;99936.50;;;9.07;97.50
64200;BME280;50516;52.272;5.136;2022-12-29T09:24:59;99926.13;;;9.04;98.29
64200;BME280;50516;52.272;5.136;2022-12-29T09:27:24;99938.22;;;8.98;98.91
64200;BME280;50516;52.272;5.136;2022-12-29T09:29:49;99965.28;;;9.04;99.44
64200;BME280;50516;52.272;5.136;2022-12-29T09:32:15;99955.66;;;9.12;99.35
64200;BME280;50516;52.272;5.136;2022-12-29T09:34:40;99944.72;;;9.07;99.30
64200;BME280;50516;52.272;5.136;2022-12-29T09:37:05;99957.66;;;8.96;100.00
64200;BME280;50516;52.272;5.136;2022-12-29T09:39:30;99967.03;;;8.90;100.00
64200;BME280;50516;52.272;5.136;2022-12-29T09:47:28;99972.75;;;8.93;100.00
64200;BME280;50516;52.272;5.136;2022-12-29T09:49:58;99978.78;;;8.90;100.00
64200;BME280;50516;52.272;5.136;2022-12-29T09:52:30;99985.03;;;8.96;100.00
64200;BME280;50516;52.272;5.136;2022-12-29T09:55:03;99986.56;;;9.18;100.00
64200;BME280;50516;52.272;5.136;2022-12-29T09:57:42;99998.06;;;9.20;100.00
64200;BME280;50516;52.272;5.136;2022-12-29T10:02:44;100016.00;;;9.36;100.00
64200;BME280;50516;52.272;5.136;2022-12-29T10:05:50;100023.94;;;9.38;100.00
64200;BME280;50516;52.272;5.136;2022-12-29T10:08:37;100024.47;;;9.45;100.00
64200;BME280;50516;52.272;5.136;2022-12-29T10:24:47;100035.72;;;9.43;100.00
64200;BME280;50516;52.272;5.136;2022-12-29T10:27:15;100035.16;;;9.46;100.00
64200;BME280;50516;52.272;5.136;2022-12-29T10:29:48;100032.13;;;9.48;100.00
64200;BME280;50516;52.272;5.136;2022-12-29T10:32:30;100033.47;;;9.50;100.00
64200;BME280;50516;52.272;5.136;2022-12-29T10:35:03;100064.34;;;9.61;100.00
64200;BME280;50516;52.272;5.136;2022-12-29T10:37:40;100071.00;;;9.50;100.00
64200;BME280;50516;52.272;5.136;2022-12-29T10:40:18;100057.34;;;9.40;100.00
64200;BME280;50516;52.272;5.136;2022-12-29T10:42:51;100060.34;;;9.48;100.00
64200;BME280;50516;52.272;5.136;2022-12-29T10:45:18;100073.94;;;9.59;100.00
64200;BME280;50516;52.272;5.136;2022-12-29T10:47:53;100083.59;;;9.56;100.00
64200;BME280;50516;52.272;5.136;2022-12-29T10:50:20;100083.13;;;9.78;100.00
64200;BME280;50516;52.272;5.136;2022-12-29T10:52:47;100084.28;;;10.07;99.48
64200;BME280;50516;52.272;5.136;2022-12-29T10:55:19;100097.84;;;10.22;98.22
64200;BME280;50516;52.272;5.136;2022-12-29T10:57:46;100097.63;;;10.18;97.73
64200;BME280;50516;52.272;5.136;2022-12-29T11:00:17;100098.53;;;10.09;97.60
64200;BME280;50516;52.272;5.136;2022-12-29T11:06:11;100105.09;;;10.08;97.05
64200;BME280;50516;52.272;5.136;2022-12-29T11:08:41;100116.06;;;10.13;97.70
64200;BME280;50516;52.272;5.136;2022-12-29T11:11:09;100112.22;;;10.43;96.78
64200;BME280;50516;52.272;5.136;2022-12-29T11:13:49;100117.34;;;10.55;96.50
64200;BME280;50516;52.272;5.136;2022-12-29T11:16:27;100113.94;;;10.39;96.92
64200;BME280;50516;52.272;5.136;2022-12-29T11:18:53;100120.66;;;10.22;97.70
64200;BME280;50516;52.272;5.136;2022-12-29T11:21:34;100121.50;;;10.18;98.04
64200;BME280;50516;52.272;5.136;2022-12-29T11:24:17;100132.44;;;10.23;97.97
64200;BME280;50516;52.272;5.136;2022-12-29T11:26:43;100134.25;;;10.38;97.50
64200;BME280;50516;52.272;5.136;2022-12-29T11:31:42;100145.72;;;10.45;95.88
64200;BME280;50516;52.272;5.136;2022-12-29T11:34:08;100155.47;;;10.27;96.41
64200;BME280;50516;52.272;5.136;2022-12-29T11:36:34;100148.19;;;10.41;95.56
64200;BME280;50516;52.272;5.136;2022-12-29T11:39:01;100156.97;;;10.44;95.28
64200;BME280;50516;52.272;5.136;2022-12-29T11:41:31;100161.41;;;10.39;95.31
64200;BME280;50516;52.272;5.136;2022-12-29T11:44:02;100159.81;;;10.28;95.00
64200;BME280;50516;52.272;5.136;2022-12-29T11:46:34;100161.91;;;10.41;94.77
64200;BME280;50516;52.272;5.136;2022-12-29T11:49:02;100168.66;;;10.59;93.52
64200;BME280;50516;52.272;5.136;2022-12-29T11:51:39;100169.69;;;10.64;93.29
64200;BME280;50516;52.272;5.136;2022-12-29T11:54:27;100182.94;;;10.56;91.49
64200;BME280;50516;52.272;5.136;2022-12-29T11:56:55;100182.22;;;10.46;92.06
64200;BME280;50516;52.272;5.136;2022-12-29T12:00:13;100191.09;;;10.32;91.49
64200;BME280;50516;52.272;5.136;2022-12-29T12:04:49;100200.03;;;10.77;90.15
64200;BME280;50516;52.272;5.136;2022-12-29T12:07:37;100195.75;;;10.95;89.42
64200;BME280;50516;52.272;5.136;2022-12-29T12:10:05;100198.25;;;10.92;87.05
64200;BME280;50516;52.272;5.136;2022-12-29T12:15:17;100198.38;;;10.47;87.77
64200;BME280;50516;52.272;5.136;2022-12-29T12:17:51;100208.28;;;10.48;88.65
64200;BME280;50516;52.272;5.136;2022-12-29T12:20:44;100207.47;;;10.43;86.99
64200;BME280;50516;52.272;5.136;2022-12-29T12:23:19;100195.97;;;10.40;87.55
64200;BME280;50516;52.272;5.136;2022-12-29T12:26:10;100204.22;;;10.40;86.62
64200;BME280;50516;52.272;5.136;2022-12-29T12:31:49;100216.03;;;10.70;86.32
64200;BME280;50516;52.272;5.136;2022-12-29T12:34:30;100218.00;;;10.65;87.22
64200;BME280;50516;52.272;5.136;2022-12-29T12:42:13;100229.75;;;10.70;86.65
64200;BME280;50516;52.272;5.136;2022-12-29T12:47:57;100226.63;;;10.53;86.28
64200;BME280;50516;52.272;5.136;2022-12-29T12:53:12;100232.41;;;10.46;85.58
64200;BME280;50516;52.272;5.136;2022-12-29T12:55:49;100244.47;;;10.50;85.16
64200;BME280;50516;52.272;5.136;2022-12-29T13:01:16;100239.88;;;10.40;85.76
64200;BME280;50516;52.272;5.136;2022-12-29T13:06:46;100240.22;;;10.34;86.00
64200;BME280;50516;52.272;5.136;2022-12-29T13:20:16;100251.25;;;10.18;87.90
64200;BME280;50516;52.272;5.136;2022-12-29T13:25:55;100258.44;;;10.14;88.49
64200;BME280;50516;52.272;5.136;2022-12-29T13:28:32;100258.03;;;10.31;87.86
64200;BME280;50516;52.272;5.136;2022-12-29T13:31:07;100257.25;;;10.20;87.85
64200;BME280;50516;52.272;5.136;2022-12-29T13:34:03;100252.81;;;10.30;87.78
64200;BME280;50516;52.272;5.136;2022-12-29T13:36:40;100261.03;;;10.35;87.13
64200;BME280;50516;52.272;5.136;2022-12-29T13:39:16;100260.53;;;10.28;87.30
64200;BME280;50516;52.272;5.136;2022-12-29T13:41:55;100261.09;;;10.24;87.67
64200;BME280;50516;52.272;5.136;2022-12-29T13:44:27;100267.47;;;10.15;87.43
64200;BME280;50516;52.272;5.136;2022-12-29T13:46:58;100260.31;;;10.14;87.30
64200;BME280;50516;52.272;5.136;2022-12-29T13:49:25;100257.53;;;10.19;87.16
64200;BME280;50516;52.272;5.136;2022-12-29T13:51:56;100268.19;;;10.31;87.23
64200;BME280;50516;52.272;5.136;2022-12-29T13:57:07;100260.22;;;10.34;86.90
64200;BME280;50516;52.272;5.136;2022-12-29T13:59:56;100258.03;;;10.36;87.14
64200;BME280;50516;52.272;5.136;2022-12-29T14:05:26;100256.38;;;10.30;87.20
64200;BME280;50516;52.272;5.136;2022-12-29T14:08:02;100252.91;;;10.19;87.34
64200;BME280;50516;52.272;5.136;2022-12-29T14:13:18;100266.38;;;10.11;87.86
64200;BME280;50516;52.272;5.136;2022-12-29T14:15:50;100251.00;;;10.15;87.95
64200;BME280;50516;52.272;5.136;2022-12-29T14:23:48;100259.28;;;10.10;89.40
64200;BME280;50516;52.272;5.136;2022-12-29T14:28:55;100276.53;;;10.10;88.90
64200;BME280;50516;52.272;5.136;2022-12-29T14:31:33;100279.88;;;10.02;89.25
64200;BME280;50516;52.272;5.136;2022-12-29T14:36:40;100279.66;;;9.93;90.16
64200;BME280;50516;52.272;5.136;2022-12-29T14:39:33;100275.81;;;9.89;90.43
64200;BME280;50516;52.272;5.136;2022-12-29T14:42:20;100288.56;;;9.64;90.58
64200;BME280;50516;52.272;5.136;2022-12-29T14:45:01;100280.34;;;9.59;90.81
64200;BME280;50516;52.272;5.136;2022-12-29T14:47:32;100283.59;;;9.66;91.39
64200;BME280;50516;52.272;5.136;2022-12-29T14:50:10;100289.09;;;9.66;91.03
64200;BME280;50516;52.272;5.136;2022-12-29T14:52:58;100296.44;;;9.76;90.51
64200;BME280;50516;52.272;5.136;2022-12-29T14:55:39;100297.53;;;9.75;90.58
64200;BME280;50516;52.272;5.136;2022-12-29T14:58:13;100309.06;;;9.77;90.03
64200;BME280;50516;52.272;5.136;2022-12-29T15:00:41;100308.03;;;9.63;90.64
64200;BME280;50516;52.272;5.136;2022-12-29T15:05:50;100300.56;;;9.74;90.60
64200;BME280;50516;52.272;5.136;2022-12-29T15:08:19;100291.53;;;9.73;90.39
64200;BME280;50516;52.272;5.136;2022-12-29T15:11:18;100299.53;;;9.64;90.32
64200;BME280;50516;52.272;5.136;2022-12-29T15:13:45;100302.28;;;9.54;91.29
64200;BME280;50516;52.272;5.136;2022-12-29T15:16:30;100298.41;;;9.60;90.79
64200;BME280;50516;52.272;5.136;2022-12-29T15:18:56;100298.75;;;9.48;91.12
64200;BME280;50516;52.272;5.136;2022-12-29T15:21:29;100300.66;;;9.43;91.94